Terminal Aerodrome Forecast
Issued by NWS

Home | Current Version | Previous Version | Text Only | Print | Product List | Glossary On
Versions: 1 2 3 4 5 6 7 8 9 10 11 12 13 14
000
FTAK31 PAFA 181150
TAFATA
TAF
PATA 181150Z 1812/1912 30005KT P6SM VCSH SCT025 BKN070
      TEMPO 1812/1815 3SM -SN BR BKN025=

USA.gov is the U.S. government's official web portal to all federal, state and local government web resources and services.